createdAt,value
2022-12-17T00:03:42.583Z,19.90
2022-12-17T00:09:02.952Z,19.91
2022-12-17T00:14:24.904Z,19.91
2022-12-17T00:19:45.275Z,19.88
2022-12-17T00:25:05.621Z,19.87
2022-12-17T00:30:28.892Z,19.86
2022-12-17T00:35:49.435Z,19.87
2022-12-17T00:41:10.176Z,19.84
2022-12-17T00:46:32.153Z,19.84
2022-12-17T00:51:52.732Z,19.81
2022-12-17T00:57:12.925Z,19.82
2022-12-17T01:02:35.011Z,19.80
2022-12-17T01:07:55.308Z,19.82
2022-12-17T01:13:16.503Z,19.82
2022-12-17T01:18:38.281Z,19.81
2022-12-17T01:23:58.580Z,19.80
2022-12-17T01:29:18.769Z,19.83
2022-12-17T01:34:40.274Z,19.80
2022-12-17T01:40:00.580Z,19.78
2022-12-17T01:45:20.992Z,19.80
2022-12-17T01:50:43.542Z,19.78
2022-12-17T01:56:03.751Z,19.74
2022-12-17T02:01:24.477Z,19.78
2022-12-17T02:06:46.505Z,19.85
2022-12-17T02:12:10.440Z,19.99
2022-12-17T02:17:32.761Z,20.07
2022-12-17T02:22:57.642Z,20.17
2022-12-17T02:28:19.586Z,20.23
2022-12-17T02:33:40.142Z,20.28
2022-12-17T02:39:01.443Z,20.32
2022-12-17T02:44:23.870Z,20.32
2022-12-17T02:49:40.976Z,20.34
2022-12-17T02:55:01.559Z,20.32
2022-12-17T03:00:24.526Z,20.31
2022-12-17T03:05:45.963Z,20.29
2022-12-17T03:11:06.432Z,20.29
2022-12-17T03:16:34.200Z,20.25
2022-12-17T03:21:57.767Z,20.29
2022-12-17T03:27:18.241Z,20.21
2022-12-17T03:32:39.715Z,20.22
2022-12-17T03:38:00.156Z,20.18
2022-12-17T03:43:24.708Z,20.17
2022-12-17T03:48:46.053Z,20.17
2022-12-17T03:54:06.312Z,20.17
2022-12-17T03:59:26.461Z,20.17
2022-12-17T04:04:47.969Z,20.14
2022-12-17T04:10:08.225Z,20.11
2022-12-17T04:15:29.076Z,20.00
2022-12-17T04:20:50.816Z,19.97
2022-12-17T04:26:11.326Z,19.90
2022-12-17T04:31:31.839Z,19.82
2022-12-17T04:36:53.546Z,19.77
2022-12-17T04:42:13.928Z,19.65
2022-12-17T04:47:34.286Z,19.56
2022-12-17T04:52:55.779Z,19.45
2022-12-17T04:58:20.611Z,19.30
2022-12-17T05:03:41.088Z,19.13
2022-12-17T05:09:08.442Z,19.08
2022-12-17T05:14:28.796Z,18.94
2022-12-17T05:19:48.997Z,18.87
2022-12-17T05:25:10.834Z,18.82
2022-12-17T05:30:31.248Z,18.75
2022-12-17T05:35:51.439Z,18.67
2022-12-17T05:41:14.357Z,18.65
2022-12-17T05:46:34.472Z,18.62
2022-12-17T05:51:54.777Z,18.61
2022-12-17T05:57:16.335Z,18.58
2022-12-17T06:02:37.068Z,18.59
2022-12-17T06:07:57.463Z,18.54
2022-12-17T06:13:18.759Z,18.52
2022-12-17T06:18:47.392Z,18.51
2022-12-17T06:24:22.325Z,18.48
2022-12-17T06:29:43.892Z,18.45
2022-12-17T06:35:04.276Z,18.43
2022-12-17T06:40:25.522Z,18.39
2022-12-17T06:45:47.199Z,18.37
2022-12-17T06:51:07.597Z,18.35
2022-12-17T06:56:27.863Z,18.33
2022-12-17T07:01:49.509Z,18.29
2022-12-17T07:07:10.125Z,18.26
2022-12-17T07:12:30.236Z,18.24
2022-12-17T07:17:52.203Z,18.23
2022-12-17T07:23:27.996Z,18.19
2022-12-17T07:28:48.475Z,18.19
2022-12-17T07:34:10.296Z,18.16
2022-12-17T07:39:30.907Z,18.16
2022-12-17T07:44:51.213Z,18.13
2022-12-17T07:50:13.391Z,18.09
2022-12-17T07:55:33.991Z,18.08
2022-12-17T08:00:54.228Z,18.06
2022-12-17T08:06:17.085Z,18.08
2022-12-17T08:11:37.231Z,16.54
2022-12-17T08:16:58.352Z,17.48
2022-12-17T08:22:20.684Z,17.76
2022-12-17T08:27:41.047Z,17.93
2022-12-17T08:33:03.501Z,18.04
2022-12-17T08:38:25.466Z,18.12
2022-12-17T08:43:45.620Z,18.24
2022-12-17T08:49:05.771Z,18.42
2022-12-17T08:54:27.481Z,18.66
2022-12-17T08:59:48.045Z,18.68
2022-12-17T09:05:08.189Z,18.75
2022-12-17T09:10:29.860Z,18.82
2022-12-17T09:15:50.548Z,18.90
2022-12-17T09:21:11.289Z,18.94
2022-12-17T09:26:38.060Z,19.01
2022-12-17T09:31:58.196Z,19.04
2022-12-17T09:37:18.589Z,19.02
2022-12-17T09:42:45.515Z,19.07
2022-12-17T09:48:10.810Z,19.12
2022-12-17T09:53:39.286Z,19.14
2022-12-17T09:59:00.858Z,19.11
2022-12-17T10:04:20.919Z,19.16
2022-12-17T10:09:41.545Z,19.20
2022-12-17T10:15:03.332Z,19.20
2022-12-17T10:20:32.614Z,19.22
2022-12-17T10:25:53.161Z,19.21
2022-12-17T10:31:14.703Z,19.16
2022-12-17T10:36:39.258Z,19.11
2022-12-17T10:42:11.411Z,19.05
2022-12-17T10:47:34.360Z,19.02
2022-12-17T10:52:54.737Z,18.97
2022-12-17T10:58:21.049Z,18.95
2022-12-17T11:03:51.225Z,18.91
2022-12-17T11:09:11.708Z,18.88
2022-12-17T11:14:32.176Z,18.84
2022-12-17T11:19:56.942Z,18.82
2022-12-17T11:25:22.635Z,18.83
2022-12-17T11:30:45.492Z,18.84
2022-12-17T11:36:10.604Z,18.87
2022-12-17T11:41:34.315Z,18.93
2022-12-17T11:46:57.867Z,18.96
2022-12-17T11:52:22.017Z,18.97
2022-12-17T11:57:43.775Z,19.01
2022-12-17T12:03:12.432Z,19.02
2022-12-17T12:08:37.495Z,19.01
2022-12-17T12:13:59.425Z,18.92
2022-12-17T12:19:24.724Z,18.96
2022-12-17T12:25:10.873Z,19.08
2022-12-17T12:30:32.684Z,19.22
2022-12-17T12:35:52.991Z,19.30
2022-12-17T12:41:17.482Z,19.34
2022-12-17T12:46:39.545Z,19.32
2022-12-17T12:52:00.153Z,19.31
2022-12-17T12:57:22.037Z,19.27
2022-12-17T13:02:44.717Z,19.34
2022-12-17T13:07:47.771Z,19.47
2022-12-17T13:12:51.979Z,19.62
2022-12-17T13:18:00.231Z,19.73
2022-12-17T13:23:15.591Z,19.88
2022-12-17T13:28:29.554Z,19.94
2022-12-17T13:33:35.877Z,20.07
2022-12-17T13:38:43.893Z,20.19
2022-12-17T13:43:49.414Z,20.27
2022-12-17T13:48:56.421Z,20.36
2022-12-17T13:53:59.781Z,20.46
2022-12-17T13:59:09.291Z,20.55
2022-12-17T14:04:23.346Z,20.61
2022-12-17T14:09:30.869Z,20.66
2022-12-17T14:14:43.648Z,20.72
2022-12-17T14:19:46.535Z,20.77
2022-12-17T14:24:49.447Z,20.80
2022-12-17T14:29:53.736Z,20.86
2022-12-17T14:35:00.996Z,20.90
2022-12-17T14:40:05.363Z,20.96
2022-12-17T14:45:22.765Z,20.98
2022-12-17T14:50:28.351Z,21.02
2022-12-17T14:55:35.813Z,21.10
2022-12-17T15:00:40.144Z,21.12
2022-12-17T15:05:43.000Z,21.17
2022-12-17T15:10:45.721Z,21.18
2022-12-17T15:15:49.797Z,21.23
2022-12-17T15:20:53.090Z,21.29
2022-12-17T15:25:56.110Z,21.33
2022-12-17T15:31:00.364Z,21.39
2022-12-17T15:36:03.154Z,21.44
2022-12-17T15:41:27.123Z,21.49
2022-12-17T15:46:31.465Z,21.53
2022-12-17T15:51:34.285Z,21.53
2022-12-17T15:56:37.459Z,21.55
2022-12-17T16:01:41.691Z,21.55
2022-12-17T16:06:44.540Z,21.55
2022-12-17T16:11:47.494Z,21.57
2022-12-17T16:16:51.879Z,21.61
2022-12-17T16:21:54.801Z,21.61
2022-12-17T16:27:04.046Z,21.61
2022-12-17T16:32:08.794Z,21.60
2022-12-17T16:37:11.652Z,21.61
2022-12-17T16:42:14.510Z,21.60
2022-12-17T16:47:18.736Z,21.56
2022-12-17T16:52:21.654Z,21.54
2022-12-17T16:57:24.421Z,21.50
2022-12-17T17:02:28.714Z,21.43
2022-12-17T17:07:31.577Z,21.43
2022-12-17T17:12:34.403Z,21.34
2022-12-17T17:17:53.846Z,21.28
2022-12-17T17:22:59.079Z,21.16
2022-12-17T17:28:01.904Z,21.07
2022-12-17T17:33:06.083Z,20.97
2022-12-17T17:38:08.832Z,20.82
2022-12-17T17:43:12.921Z,20.76
2022-12-17T17:48:17.057Z,20.77
2022-12-17T17:53:19.884Z,20.89
2022-12-17T17:58:22.700Z,21.02
2022-12-17T18:03:27.026Z,21.14
2022-12-17T18:08:31.454Z,21.23
2022-12-17T18:13:51.721Z,21.30
2022-12-17T18:18:57.576Z,21.40
2022-12-17T18:24:02.090Z,21.49
2022-12-17T18:29:08.952Z,21.48
2022-12-17T18:34:13.820Z,21.54
2022-12-17T18:39:17.305Z,21.60
2022-12-17T18:44:20.276Z,21.64
2022-12-17T18:49:24.486Z,21.65
2022-12-17T18:54:28.284Z,21.68
2022-12-17T18:59:31.496Z,21.70
2022-12-17T19:04:35.689Z,21.64
2022-12-17T19:09:40.103Z,21.65
2022-12-17T19:14:43.366Z,21.58
2022-12-17T19:19:48.122Z,21.57
2022-12-17T19:24:50.971Z,21.54
2022-12-17T19:29:54.887Z,21.53
2022-12-17T19:34:59.098Z,21.49
2022-12-17T19:40:01.896Z,21.46
2022-12-17T19:45:05.167Z,21.45
2022-12-17T19:50:10.135Z,21.39
2022-12-17T19:55:13.030Z,21.37
2022-12-17T20:00:16.408Z,21.30
2022-12-17T20:05:20.749Z,21.25
2022-12-17T20:10:23.532Z,21.21
2022-12-17T20:15:26.329Z,21.19
2022-12-17T20:20:30.552Z,21.16
2022-12-17T20:25:33.356Z,21.14
2022-12-17T20:30:36.138Z,21.14
2022-12-17T20:35:41.697Z,21.14
2022-12-17T20:40:44.493Z,21.06
2022-12-17T20:45:50.355Z,21.05
2022-12-17T20:50:54.821Z,21.01
2022-12-17T20:56:01.618Z,20.98
2022-12-17T21:01:06.010Z,20.96
2022-12-17T21:06:12.005Z,20.94
2022-12-17T21:11:14.811Z,20.93
2022-12-17T21:16:19.644Z,20.92
2022-12-17T21:21:25.016Z,20.89
2022-12-17T21:26:29.201Z,20.88
2022-12-17T21:31:33.070Z,20.86
2022-12-17T21:36:37.278Z,20.85
2022-12-17T21:41:44.632Z,20.85
2022-12-17T21:46:50.060Z,20.82
2022-12-17T21:51:55.078Z,20.83
2022-12-17T21:56:57.841Z,20.79
2022-12-17T22:02:00.758Z,20.84
2022-12-17T22:07:12.538Z,20.79
2022-12-17T22:12:37.734Z,20.80
2022-12-17T22:17:42.538Z,20.78
2022-12-17T22:22:46.760Z,20.78
2022-12-17T22:27:50.104Z,20.77
2022-12-17T22:33:02.699Z,20.77
2022-12-17T22:40:51.362Z,20.75
2022-12-17T22:44:44.080Z,20.77
2022-12-17T22:49:05.039Z,20.76
2022-12-17T22:54:09.344Z,20.75
2022-12-17T22:59:15.592Z,20.77
2022-12-17T23:04:18.473Z,20.73
2022-12-17T23:09:24.010Z,20.74
2022-12-17T23:14:26.746Z,20.72
2022-12-17T23:19:29.612Z,20.72
2022-12-17T23:24:34.869Z,20.70
2022-12-17T23:29:37.661Z,20.67
2022-12-17T23:34:41.288Z,20.69
2022-12-17T23:39:45.437Z,20.64
2022-12-17T23:44:48.313Z,20.65
2022-12-17T23:49:51.129Z,20.61
2022-12-17T23:54:55.514Z,20.65
2022-12-17T23:59:58.430Z,20.65
